sensor_id;sensor_type;location;lat;lon;timestamp;temperature;humidity
18932;DHT22;9598;50.954;3.112;2023-06-22T00:01:26;22.00;99.90
18932;DHT22;9598;50.954;3.112;2023-06-22T00:06:29;22.00;99.90
18932;DHT22;9598;50.954;3.112;2023-06-22T00:11:31;22.00;99.90
18932;DHT22;9598;50.954;3.112;2023-06-22T00:16:35;21.80;99.90
18932;DHT22;9598;50.954;3.112;2023-06-22T00:21:37;21.80;99.90
18932;DHT22;9598;50.954;3.112;2023-06-22T00:26:40;21.70;99.90
18932;DHT22;9598;50.954;3.112;2023-06-22T00:31:45;21.70;99.90
18932;DHT22;9598;50.954;3.112;2023-06-22T00:36:47;21.70;99.90
18932;DHT22;9598;50.954;3.112;2023-06-22T00:41:49;21.60;99.90
18932;DHT22;9598;50.954;3.112;2023-06-22T00:46:53;21.60;99.90
18932;DHT22;9598;50.954;3.112;2023-06-22T00:51:56;21.50;99.90
18932;DHT22;9598;50.954;3.112;2023-06-22T00:56:59;21.40;99.90
18932;DHT22;9598;50.954;3.112;2023-06-22T01:02:04;21.40;99.90
18932;DHT22;9598;50.954;3.112;2023-06-22T01:07:13;21.40;99.90
18932;DHT22;9598;50.954;3.112;2023-06-22T01:12:18;21.40;99.90
18932;DHT22;9598;50.954;3.112;2023-06-22T01:17:22;21.40;99.90
18932;DHT22;9598;50.954;3.112;2023-06-22T01:22:28;21.40;99.90
18932;DHT22;9598;50.954;3.112;2023-06-22T01:27:39;21.30;99.90
18932;DHT22;9598;50.954;3.112;2023-06-22T01:32:45;21.20;99.90
18932;DHT22;9598;50.954;3.112;2023-06-22T01:37:47;21.20;99.90
18932;DHT22;9598;50.954;3.112;2023-06-22T01:42:52;21.00;99.90
18932;DHT22;9598;50.954;3.112;2023-06-22T01:47:56;21.00;99.90
18932;DHT22;9598;50.954;3.112;2023-06-22T01:52:59;21.00;99.90
18932;DHT22;9598;50.954;3.112;2023-06-22T01:58:01;21.00;99.90
18932;DHT22;9598;50.954;3.112;2023-06-22T02:03:08;21.00;99.90
18932;DHT22;9598;50.954;3.112;2023-06-22T02:08:17;20.90;99.90
18932;DHT22;9598;50.954;3.112;2023-06-22T02:13:20;20.90;99.90
18932;DHT22;9598;50.954;3.112;2023-06-22T02:18:23;20.90;99.90
18932;DHT22;9598;50.954;3.112;2023-06-22T02:23:26;20.90;99.90
18932;DHT22;9598;50.954;3.112;2023-06-22T02:28:28;20.80;99.90
18932;DHT22;9598;50.954;3.112;2023-06-22T02:33:32;20.80;99.90
18932;DHT22;9598;50.954;3.112;2023-06-22T02:38:34;20.80;99.90
18932;DHT22;9598;50.954;3.112;2023-06-22T02:43:36;20.70;99.90
18932;DHT22;9598;50.954;3.112;2023-06-22T02:48:40;20.60;99.90
18932;DHT22;9598;50.954;3.112;2023-06-22T02:53:43;20.50;99.90
18932;DHT22;9598;50.954;3.112;2023-06-22T02:58:46;20.40;99.90
18932;DHT22;9598;50.954;3.112;2023-06-22T03:03:50;20.30;99.90
18932;DHT22;9598;50.954;3.112;2023-06-22T03:08:52;20.30;99.90
18932;DHT22;9598;50.954;3.112;2023-06-22T03:13:54;20.30;99.90
18932;DHT22;9598;50.954;3.112;2023-06-22T03:18:58;20.30;99.90
18932;DHT22;9598;50.954;3.112;2023-06-22T03:24:00;20.30;99.90
18932;DHT22;9598;50.954;3.112;2023-06-22T03:29:02;20.30;99.90
18932;DHT22;9598;50.954;3.112;2023-06-22T03:34:07;20.20;99.90
18932;DHT22;9598;50.954;3.112;2023-06-22T03:39:09;20.10;99.90
18932;DHT22;9598;50.954;3.112;2023-06-22T03:44:11;20.20;99.90
18932;DHT22;9598;50.954;3.112;2023-06-22T03:49:15;20.20;99.90
18932;DHT22;9598;50.954;3.112;2023-06-22T03:54:17;20.10;99.90
18932;DHT22;9598;50.954;3.112;2023-06-22T03:59:19;20.10;99.90
18932;DHT22;9598;50.954;3.112;2023-06-22T04:04:22;20.10;99.90
18932;DHT22;9598;50.954;3.112;2023-06-22T04:09:24;20.10;99.90
18932;DHT22;9598;50.954;3.112;2023-06-22T04:14:26;20.10;99.90
18932;DHT22;9598;50.954;3.112;2023-06-22T04:19:29;20.10;99.90
18932;DHT22;9598;50.954;3.112;2023-06-22T04:24:32;20.10;99.90
18932;DHT22;9598;50.954;3.112;2023-06-22T04:29:34;20.10;99.90
18932;DHT22;9598;50.954;3.112;2023-06-22T04:34:37;20.20;99.90
18932;DHT22;9598;50.954;3.112;2023-06-22T04:39:39;20.20;99.90
18932;DHT22;9598;50.954;3.112;2023-06-22T04:44:41;20.20;99.90
18932;DHT22;9598;50.954;3.112;2023-06-22T04:49:44;20.20;99.90
18932;DHT22;9598;50.954;3.112;2023-06-22T04:54:47;20.20;99.90
18932;DHT22;9598;50.954;3.112;2023-06-22T04:59:56;20.30;99.90
18932;DHT22;9598;50.954;3.112;2023-06-22T05:04:59;20.40;99.90
18932;DHT22;9598;50.954;3.112;2023-06-22T05:10:01;20.40;99.90
18932;DHT22;9598;50.954;3.112;2023-06-22T05:15:04;20.40;99.90
18932;DHT22;9598;50.954;3.112;2023-06-22T05:20:09;20.40;99.90
18932;DHT22;9598;50.954;3.112;2023-06-22T05:25:11;20.40;99.90
18932;DHT22;9598;50.954;3.112;2023-06-22T05:30:13;20.40;99.90
18932;DHT22;9598;50.954;3.112;2023-06-22T05:35:18;20.40;99.90
18932;DHT22;9598;50.954;3.112;2023-06-22T05:40:20;20.40;99.90
18932;DHT22;9598;50.954;3.112;2023-06-22T05:45:22;20.50;99.90
18932;DHT22;9598;50.954;3.112;2023-06-22T05:50:25;20.60;99.90
18932;DHT22;9598;50.954;3.112;2023-06-22T05:55:27;20.80;99.90
18932;DHT22;9598;50.954;3.112;2023-06-22T06:00:29;20.80;99.90
18932;DHT22;9598;50.954;3.112;2023-06-22T06:05:34;20.80;99.90
18932;DHT22;9598;50.954;3.112;2023-06-22T06:10:36;20.90;99.90
18932;DHT22;9598;50.954;3.112;2023-06-22T06:15:38;21.00;99.90
18932;DHT22;9598;50.954;3.112;2023-06-22T06:20:42;21.00;99.90
18932;DHT22;9598;50.954;3.112;2023-06-22T06:25:44;21.00;99.90
18932;DHT22;9598;50.954;3.112;2023-06-22T06:30:46;21.10;99.90
18932;DHT22;9598;50.954;3.112;2023-06-22T06:35:49;21.10;99.90
18932;DHT22;9598;50.954;3.112;2023-06-22T06:40:52;21.20;99.90
18932;DHT22;9598;50.954;3.112;2023-06-22T06:45:54;21.30;99.90
18932;DHT22;9598;50.954;3.112;2023-06-22T06:50:58;21.40;99.90
18932;DHT22;9598;50.954;3.112;2023-06-22T06:56:00;21.40;99.90
18932;DHT22;9598;50.954;3.112;2023-06-22T07:01:02;21.50;99.90
18932;DHT22;9598;50.954;3.112;2023-06-22T07:06:05;21.60;99.90
18932;DHT22;9598;50.954;3.112;2023-06-22T07:11:07;21.70;99.90
18932;DHT22;9598;50.954;3.112;2023-06-22T07:16:09;21.80;99.90
18932;DHT22;9598;50.954;3.112;2023-06-22T07:21:13;21.90;99.90
18932;DHT22;9598;50.954;3.112;2023-06-22T07:26:15;22.00;99.90
18932;DHT22;9598;50.954;3.112;2023-06-22T07:31:17;22.10;99.90
18932;DHT22;9598;50.954;3.112;2023-06-22T07:36:21;22.30;99.90
18932;DHT22;9598;50.954;3.112;2023-06-22T07:41:23;22.40;99.90
18932;DHT22;9598;50.954;3.112;2023-06-22T07:46:25;22.40;99.90
18932;DHT22;9598;50.954;3.112;2023-06-22T07:51:28;22.40;99.90
18932;DHT22;9598;50.954;3.112;2023-06-22T07:56:30;22.50;99.90
18932;DHT22;9598;50.954;3.112;2023-06-22T08:01:33;22.60;99.90
18932;DHT22;9598;50.954;3.112;2023-06-22T08:06:37;22.70;99.90
18932;DHT22;9598;50.954;3.112;2023-06-22T08:11:39;22.70;99.90
18932;DHT22;9598;50.954;3.112;2023-06-22T08:16:41;22.80;99.90
18932;DHT22;9598;50.954;3.112;2023-06-22T08:21:45;22.90;99.90
18932;DHT22;9598;50.954;3.112;2023-06-22T08:26:47;22.90;99.90
18932;DHT22;9598;50.954;3.112;2023-06-22T08:31:49;23.00;99.90
18932;DHT22;9598;50.954;3.112;2023-06-22T08:36:53;23.10;99.90
18932;DHT22;9598;50.954;3.112;2023-06-22T08:41:55;23.10;99.90
18932;DHT22;9598;50.954;3.112;2023-06-22T08:46:57;23.20;99.90
18932;DHT22;9598;50.954;3.112;2023-06-22T08:52:00;23.30;99.90
18932;DHT22;9598;50.954;3.112;2023-06-22T08:57:03;23.40;99.90
18932;DHT22;9598;50.954;3.112;2023-06-22T09:02:05;23.40;99.90
18932;DHT22;9598;50.954;3.112;2023-06-22T09:07:09;23.40;99.90
18932;DHT22;9598;50.954;3.112;2023-06-22T09:12:12;23.40;99.90
18932;DHT22;9598;50.954;3.112;2023-06-22T09:17:14;23.40;99.90
18932;DHT22;9598;50.954;3.112;2023-06-22T09:22:18;23.50;99.90
18932;DHT22;9598;50.954;3.112;2023-06-22T09:27:20;23.60;99.90
18932;DHT22;9598;50.954;3.112;2023-06-22T09:32:23;23.60;99.90
18932;DHT22;9598;50.954;3.112;2023-06-22T09:37:26;23.60;99.90
18932;DHT22;9598;50.954;3.112;2023-06-22T09:42:28;23.60;99.90
18932;DHT22;9598;50.954;3.112;2023-06-22T09:47:31;23.70;99.90
18932;DHT22;9598;50.954;3.112;2023-06-22T09:52:34;23.70;99.90
18932;DHT22;9598;50.954;3.112;2023-06-22T09:57:36;23.70;99.90
18932;DHT22;9598;50.954;3.112;2023-06-22T10:02:38;23.70;99.90
18932;DHT22;9598;50.954;3.112;2023-06-22T10:07:42;23.60;99.90
18932;DHT22;9598;50.954;3.112;2023-06-22T10:12:46;23.70;99.90
18932;DHT22;9598;50.954;3.112;2023-06-22T10:17:48;23.70;99.90
18932;DHT22;9598;50.954;3.112;2023-06-22T10:22:52;23.70;99.90
18932;DHT22;9598;50.954;3.112;2023-06-22T10:27:54;23.70;99.90
18932;DHT22;9598;50.954;3.112;2023-06-22T10:32:56;23.70;99.90
18932;DHT22;9598;50.954;3.112;2023-06-22T10:37:59;23.70;99.90
18932;DHT22;9598;50.954;3.112;2023-06-22T10:43:01;23.70;99.90
18932;DHT22;9598;50.954;3.112;2023-06-22T10:48:04;23.70;99.90
18932;DHT22;9598;50.954;3.112;2023-06-22T10:53:07;23.70;99.90
18932;DHT22;9598;50.954;3.112;2023-06-22T10:58:09;23.60;99.90
18932;DHT22;9598;50.954;3.112;2023-06-22T11:03:12;23.60;99.90
18932;DHT22;9598;50.954;3.112;2023-06-22T11:08:16;23.70;99.90
18932;DHT22;9598;50.954;3.112;2023-06-22T11:13:18;23.70;99.90
18932;DHT22;9598;50.954;3.112;2023-06-22T11:18:20;23.70;99.90
18932;DHT22;9598;50.954;3.112;2023-06-22T11:23:25;23.70;99.90
18932;DHT22;9598;50.954;3.112;2023-06-22T11:28:28;23.70;99.90
18932;DHT22;9598;50.954;3.112;2023-06-22T11:33:30;23.60;99.90
18932;DHT22;9598;50.954;3.112;2023-06-22T11:38:34;23.70;99.90
18932;DHT22;9598;50.954;3.112;2023-06-22T11:43:37;23.70;99.90
18932;DHT22;9598;50.954;3.112;2023-06-22T11:48:39;23.70;99.90
18932;DHT22;9598;50.954;3.112;2023-06-22T11:53:43;23.70;99.90
18932;DHT22;9598;50.954;3.112;2023-06-22T11:58:45;23.70;99.90
18932;DHT22;9598;50.954;3.112;2023-06-22T12:03:47;23.60;99.90
18932;DHT22;9598;50.954;3.112;2023-06-22T12:08:50;23.60;99.90
18932;DHT22;9598;50.954;3.112;2023-06-22T12:13:53;23.60;99.90
18932;DHT22;9598;50.954;3.112;2023-06-22T12:18:55;23.60;99.90
18932;DHT22;9598;50.954;3.112;2023-06-22T12:23:59;23.70;99.90
18932;DHT22;9598;50.954;3.112;2023-06-22T12:29:01;23.70;99.90
18932;DHT22;9598;50.954;3.112;2023-06-22T12:34:04;23.70;99.90
18932;DHT22;9598;50.954;3.112;2023-06-22T12:39:08;23.70;99.90
18932;DHT22;9598;50.954;3.112;2023-06-22T12:44:10;23.80;99.90
18932;DHT22;9598;50.954;3.112;2023-06-22T12:49:12;23.70;99.90
18932;DHT22;9598;50.954;3.112;2023-06-22T12:54:15;23.70;99.90
18932;DHT22;9598;50.954;3.112;2023-06-22T12:59:17;23.80;99.90
18932;DHT22;9598;50.954;3.112;2023-06-22T13:04:20;23.80;99.90
18932;DHT22;9598;50.954;3.112;2023-06-22T13:09:23;23.80;99.90
18932;DHT22;9598;50.954;3.112;2023-06-22T13:14:25;23.70;99.90
18932;DHT22;9598;50.954;3.112;2023-06-22T13:19:27;23.70;99.90
18932;DHT22;9598;50.954;3.112;2023-06-22T13:24:34;23.70;99.90
18932;DHT22;9598;50.954;3.112;2023-06-22T13:29:36;23.70;99.90
18932;DHT22;9598;50.954;3.112;2023-06-22T13:34:38;23.70;99.90
18932;DHT22;9598;50.954;3.112;2023-06-22T13:39:42;23.70;99.90
18932;DHT22;9598;50.954;3.112;2023-06-22T13:44:44;23.80;99.90
18932;DHT22;9598;50.954;3.112;2023-06-22T13:49:46;23.80;99.90
18932;DHT22;9598;50.954;3.112;2023-06-22T13:54:49;23.80;99.90
18932;DHT22;9598;50.954;3.112;2023-06-22T13:59:51;23.90;99.90
18932;DHT22;9598;50.954;3.112;2023-06-22T14:04:54;24.00;99.90
18932;DHT22;9598;50.954;3.112;2023-06-22T14:09:57;24.10;99.90
18932;DHT22;9598;50.954;3.112;2023-06-22T14:14:59;24.10;99.90
18932;DHT22;9598;50.954;3.112;2023-06-22T14:20:02;23.90;99.90
18932;DHT22;9598;50.954;3.112;2023-06-22T14:25:06;23.90;99.90
18932;DHT22;9598;50.954;3.112;2023-06-22T14:30:09;24.00;99.90
18932;DHT22;9598;50.954;3.112;2023-06-22T14:35:11;24.10;99.90
18932;DHT22;9598;50.954;3.112;2023-06-22T14:40:15;24.00;99.90
18932;DHT22;9598;50.954;3.112;2023-06-22T14:45:17;24.10;99.90
18932;DHT22;9598;50.954;3.112;2023-06-22T14:50:19;24.10;99.90
18932;DHT22;9598;50.954;3.112;2023-06-22T14:55:22;24.10;99.90
18932;DHT22;9598;50.954;3.112;2023-06-22T15:00:24;24.10;99.90
18932;DHT22;9598;50.954;3.112;2023-06-22T15:05:26;24.10;99.90
18932;DHT22;9598;50.954;3.112;2023-06-22T15:10:30;24.10;99.90
18932;DHT22;9598;50.954;3.112;2023-06-22T15:15:32;24.10;99.90
18932;DHT22;9598;50.954;3.112;2023-06-22T15:20:35;24.10;99.90
18932;DHT22;9598;50.954;3.112;2023-06-22T15:25:38;24.10;99.90
18932;DHT22;9598;50.954;3.112;2023-06-22T15:30:40;24.10;99.90
18932;DHT22;9598;50.954;3.112;2023-06-22T15:35:42;24.10;99.90
18932;DHT22;9598;50.954;3.112;2023-06-22T15:40:46;24.10;99.90
18932;DHT22;9598;50.954;3.112;2023-06-22T15:45:48;24.10;99.90
18932;DHT22;9598;50.954;3.112;2023-06-22T15:50:50;24.00;99.90
18932;DHT22;9598;50.954;3.112;2023-06-22T15:55:53;24.10;99.90
18932;DHT22;9598;50.954;3.112;2023-06-22T16:00:56;24.00;99.90
18932;DHT22;9598;50.954;3.112;2023-06-22T16:05:58;24.00;99.90
18932;DHT22;9598;50.954;3.112;2023-06-22T16:11:01;24.00;99.90
18932;DHT22;9598;50.954;3.112;2023-06-22T16:16:03;24.00;99.90
18932;DHT22;9598;50.954;3.112;2023-06-22T16:21:06;24.00;99.90
18932;DHT22;9598;50.954;3.112;2023-06-22T16:26:09;24.00;99.90
18932;DHT22;9598;50.954;3.112;2023-06-22T16:31:11;24.00;99.90
18932;DHT22;9598;50.954;3.112;2023-06-22T16:36:13;24.00;99.90
18932;DHT22;9598;50.954;3.112;2023-06-22T16:41:17;24.00;99.90
18932;DHT22;9598;50.954;3.112;2023-06-22T16:46:19;24.00;99.90
18932;DHT22;9598;50.954;3.112;2023-06-22T16:51:22;24.00;99.90
18932;DHT22;9598;50.954;3.112;2023-06-22T16:56:27;24.00;99.90
18932;DHT22;9598;50.954;3.112;2023-06-22T17:01:29;23.90;99.90
18932;DHT22;9598;50.954;3.112;2023-06-22T17:06:35;23.90;99.90
18932;DHT22;9598;50.954;3.112;2023-06-22T17:11:38;23.90;99.90
18932;DHT22;9598;50.954;3.112;2023-06-22T17:16:42;23.80;99.90
18932;DHT22;9598;50.954;3.112;2023-06-22T17:21:47;23.80;99.90
18932;DHT22;9598;50.954;3.112;2023-06-22T17:26:53;23.70;99.90
18932;DHT22;9598;50.954;3.112;2023-06-22T17:31:55;23.70;99.90
18932;DHT22;9598;50.954;3.112;2023-06-22T17:36:58;23.70;99.90
18932;DHT22;9598;50.954;3.112;2023-06-22T17:42:06;23.70;99.90
18932;DHT22;9598;50.954;3.112;2023-06-22T17:47:08;23.70;99.90
18932;DHT22;9598;50.954;3.112;2023-06-22T17:52:16;23.70;99.90
18932;DHT22;9598;50.954;3.112;2023-06-22T17:57:20;23.60;99.90
18932;DHT22;9598;50.954;3.112;2023-06-22T18:02:24;23.50;99.90
18932;DHT22;9598;50.954;3.112;2023-06-22T18:07:26;23.50;99.90
18932;DHT22;9598;50.954;3.112;2023-06-22T18:12:32;23.40;99.90
18932;DHT22;9598;50.954;3.112;2023-06-22T18:17:35;23.30;99.90
18932;DHT22;9598;50.954;3.112;2023-06-22T18:22:38;23.30;99.90
18932;DHT22;9598;50.954;3.112;2023-06-22T18:27:43;23.20;99.90
18932;DHT22;9598;50.954;3.112;2023-06-22T18:32:45;23.20;99.90
18932;DHT22;9598;50.954;3.112;2023-06-22T18:37:49;23.20;99.90
18932;DHT22;9598;50.954;3.112;2023-06-22T18:42:58;23.20;99.90
18932;DHT22;9598;50.954;3.112;2023-06-22T18:48:03;23.20;99.90
18932;DHT22;9598;50.954;3.112;2023-06-22T18:53:05;23.20;99.90
18932;DHT22;9598;50.954;3.112;2023-06-22T18:58:14;23.10;99.90
18932;DHT22;9598;50.954;3.112;2023-06-22T19:03:29;23.10;99.90
18932;DHT22;9598;50.954;3.112;2023-06-22T19:09:14;23.00;99.90
18932;DHT22;9598;50.954;3.112;2023-06-22T19:14:21;23.00;99.90
18932;DHT22;9598;50.954;3.112;2023-06-22T19:19:23;22.90;99.90
18932;DHT22;9598;50.954;3.112;2023-06-22T19:24:29;22.90;99.90
18932;DHT22;9598;50.954;3.112;2023-06-22T19:29:33;22.70;99.90
18932;DHT22;9598;50.954;3.112;2023-06-22T19:34:35;22.60;99.90
18932;DHT22;9598;50.954;3.112;2023-06-22T19:39:45;22.40;99.90
18932;DHT22;9598;50.954;3.112;2023-06-22T19:44:48;22.30;99.90
18932;DHT22;9598;50.954;3.112;2023-06-22T19:49:58;22.20;99.90
18932;DHT22;9598;50.954;3.112;2023-06-22T19:55:00;22.00;99.90
18932;DHT22;9598;50.954;3.112;2023-06-22T20:00:07;21.90;99.90
18932;DHT22;9598;50.954;3.112;2023-06-22T20:05:14;21.90;99.90
18932;DHT22;9598;50.954;3.112;2023-06-22T20:10:18;21.80;99.90
18932;DHT22;9598;50.954;3.112;2023-06-22T20:15:23;21.70;99.90
18932;DHT22;9598;50.954;3.112;2023-06-22T20:20:27;21.60;99.90
18932;DHT22;9598;50.954;3.112;2023-06-22T20:25:31;21.60;99.90
18932;DHT22;9598;50.954;3.112;2023-06-22T20:30:35;21.60;99.90
18932;DHT22;9598;50.954;3.112;2023-06-22T20:35:37;21.60;99.90
18932;DHT22;9598;50.954;3.112;2023-06-22T20:40:39;21.60;99.90
18932;DHT22;9598;50.954;3.112;2023-06-22T20:45:43;21.50;99.90
18932;DHT22;9598;50.954;3.112;2023-06-22T20:50:45;21.40;99.90
18932;DHT22;9598;50.954;3.112;2023-06-22T20:55:47;21.40;99.90
18932;DHT22;9598;50.954;3.112;2023-06-22T21:00:50;21.30;99.90
18932;DHT22;9598;50.954;3.112;2023-06-22T21:05:52;21.20;99.90
18932;DHT22;9598;50.954;3.112;2023-06-22T21:10:56;21.10;99.90
18932;DHT22;9598;50.954;3.112;2023-06-22T21:16:00;21.00;99.90
18932;DHT22;9598;50.954;3.112;2023-06-22T21:21:02;20.90;99.90
18932;DHT22;9598;50.954;3.112;2023-06-22T21:26:04;20.90;99.90
18932;DHT22;9598;50.954;3.112;2023-06-22T21:31:07;20.80;99.90
18932;DHT22;9598;50.954;3.112;2023-06-22T21:36:10;20.70;99.90
18932;DHT22;9598;50.954;3.112;2023-06-22T21:41:12;20.60;99.90
18932;DHT22;9598;50.954;3.112;2023-06-22T21:46:15;20.50;99.90
18932;DHT22;9598;50.954;3.112;2023-06-22T21:51:17;20.40;99.90
18932;DHT22;9598;50.954;3.112;2023-06-22T21:56:19;20.40;99.90
18932;DHT22;9598;50.954;3.112;2023-06-22T22:01:22;20.30;99.90
18932;DHT22;9598;50.954;3.112;2023-06-22T22:06:24;20.30;99.90
18932;DHT22;9598;50.954;3.112;2023-06-22T22:11:28;20.20;99.90
18932;DHT22;9598;50.954;3.112;2023-06-22T22:16:32;20.10;99.90
18932;DHT22;9598;50.954;3.112;2023-06-22T22:21:34;20.10;99.90
18932;DHT22;9598;50.954;3.112;2023-06-22T22:26:36;20.00;99.90
18932;DHT22;9598;50.954;3.112;2023-06-22T22:31:40;19.80;99.90
18932;DHT22;9598;50.954;3.112;2023-06-22T22:36:42;19.70;99.90
18932;DHT22;9598;50.954;3.112;2023-06-22T22:41:44;19.70;99.90
18932;DHT22;9598;50.954;3.112;2023-06-22T22:46:48;19.60;99.90
18932;DHT22;9598;50.954;3.112;2023-06-22T22:51:50;19.60;99.90
18932;DHT22;9598;50.954;3.112;2023-06-22T22:56:53;19.60;99.90
18932;DHT22;9598;50.954;3.112;2023-06-22T23:01:56;19.60;99.90
18932;DHT22;9598;50.954;3.112;2023-06-22T23:06:58;19.60;99.90
18932;DHT22;9598;50.954;3.112;2023-06-22T23:12:00;19.60;99.90
18932;DHT22;9598;50.954;3.112;2023-06-22T23:17:04;19.60;99.90
18932;DHT22;9598;50.954;3.112;2023-06-22T23:22:06;19.60;99.90
18932;DHT22;9598;50.954;3.112;2023-06-22T23:27:09;19.60;99.90
18932;DHT22;9598;50.954;3.112;2023-06-22T23:32:15;19.50;99.90
18932;DHT22;9598;50.954;3.112;2023-06-22T23:37:17;19.50;99.90
18932;DHT22;9598;50.954;3.112;2023-06-22T23:42:19;19.40;99.90
18932;DHT22;9598;50.954;3.112;2023-06-22T23:47:23;19.40;99.90
18932;DHT22;9598;50.954;3.112;2023-06-22T23:52:27;19.30;99.90
18932;DHT22;9598;50.954;3.112;2023-06-22T23:57:29;19.30;99.90
